TKJ2001 LTFJ-LTAW
Flight info
| Callsign | TKJ2001 |
|---|---|
| Flight time | 0h 53m |
| Altitude | 35000 |
| Route | VICEN UT380 ASMAP UL333 LATGA UT363 GURBU UL615 HAKCE |
| Aircraft | B738/M-SDE2E3FGHIRWXY/LB1 |
Departure
| Time | 2026-04-23 09:35 |
|---|---|
| Airport | Istanbul Sabiha Gökçen International Airport (LTFJ) |
Arrival
| Time | 2026-04-23 10:28 |
|---|---|
| Airport | Tokat Airport (LTAW) |
| Time | Latitude | Longitude | Altitude | Speed | Heading |
|---|---|---|---|---|---|
| 2026-04-23 09:14 | 40.90202 | 29.30989 | 321 ft | 0 kts | 153° |
| 2026-04-23 09:22 | 40.90208 | 29.30985 | 320 ft | 2 kts | 158° |
| 2026-04-23 09:22 | 40.90222 | 29.30978 | 320 ft | 2 kts | 166° |
| 2026-04-23 09:23 | 40.90237 | 29.30976 | 320 ft | 2 kts | 180° |
| 2026-04-23 09:23 | 40.90252 | 29.30978 | 320 ft | 2 kts | 193° |
| 2026-04-23 09:23 | 40.90266 | 29.30984 | 320 ft | 2 kts | 206° |
| 2026-04-23 09:23 | 40.90279 | 29.30995 | 320 ft | 2 kts | 220° |
| 2026-04-23 09:24 | 40.90289 | 29.31009 | 320 ft | 2 kts | 233° |
| 2026-04-23 09:24 | 40.90295 | 29.31020 | 320 ft | 0 kts | 242° |
| 2026-04-23 09:24 | 40.90297 | 29.31027 | 320 ft | 0 kts | 243° |
| 2026-04-23 09:25 | 40.90295 | 29.31021 | 320 ft | 2 kts | 243° |
| 2026-04-23 09:26 | 40.90277 | 29.30973 | 320 ft | 7 kts | 243° |
| 2026-04-23 09:26 | 40.90242 | 29.30887 | 320 ft | 10 kts | 220° |
| 2026-04-23 09:26 | 40.90179 | 29.30897 | 320 ft | 11 kts | 154° |
| 2026-04-23 09:26 | 40.90132 | 29.30927 | 320 ft | 3 kts | 153° |
| 2026-04-23 09:27 | 40.90131 | 29.30928 | 320 ft | 0 kts | 153° |
| 2026-04-23 09:27 | 40.90126 | 29.30932 | 320 ft | 1 kts | 153° |
| 2026-04-23 09:28 | 40.90112 | 29.30938 | 320 ft | 2 kts | 172° |
| 2026-04-23 09:28 | 40.90057 | 29.30898 | 320 ft | 18 kts | 240° |
| 2026-04-23 09:28 | 40.90014 | 29.30785 | 320 ft | 12 kts | 243° |
| 2026-04-23 09:28 | 40.89977 | 29.30684 | 320 ft | 11 kts | 243° |
| 2026-04-23 09:29 | 40.89943 | 29.30593 | 320 ft | 11 kts | 245° |
| 2026-04-23 09:29 | 40.89889 | 29.30441 | 320 ft | 26 kts | 244° |
| 2026-04-23 09:29 | 40.89805 | 29.30215 | 320 ft | 26 kts | 244° |
| 2026-04-23 09:29 | 40.89729 | 29.30008 | 320 ft | 23 kts | 243° |
| 2026-04-23 09:30 | 40.89660 | 29.29821 | 320 ft | 21 kts | 244° |
| 2026-04-23 09:30 | 40.89600 | 29.29657 | 320 ft | 17 kts | 244° |
| 2026-04-23 09:30 | 40.89547 | 29.29513 | 320 ft | 16 kts | 244° |
| 2026-04-23 09:30 | 40.89502 | 29.29393 | 320 ft | 13 kts | 243° |
| 2026-04-23 09:31 | 40.89465 | 29.29294 | 320 ft | 10 kts | 241° |
| 2026-04-23 09:31 | 40.89409 | 29.29255 | 320 ft | 8 kts | 174° |
| 2026-04-23 09:31 | 40.89368 | 29.29273 | 320 ft | 4 kts | 156° |
| 2026-04-23 09:31 | 40.89341 | 29.29289 | 320 ft | 3 kts | 156° |
| 2026-04-23 09:32 | 40.89317 | 29.29302 | 320 ft | 3 kts | 155° |
| 2026-04-23 09:32 | 40.89292 | 29.29361 | 320 ft | 10 kts | 94° |
| 2026-04-23 09:32 | 40.89311 | 29.29448 | 320 ft | 5 kts | 63° |
| 2026-04-23 09:32 | 40.89313 | 29.29453 | 320 ft | 0 kts | 63° |
| 2026-04-23 09:34 | 40.89321 | 29.29473 | 320 ft | 14 kts | 63° |
| 2026-04-23 09:34 | 40.89498 | 29.29952 | 321 ft | 98 kts | 64° |
| 2026-04-23 09:34 | 40.89902 | 29.31050 | 333 ft | 165 kts | 64° |
| 2026-04-23 09:35 | 40.90430 | 29.32457 | 1045 ft | 176 kts | 62° |
| 2026-04-23 09:35 | 40.90934 | 29.33787 | 2199 ft | 160 kts | 63° |
| 2026-04-23 09:35 | 40.91428 | 29.35144 | 2719 ft | 174 kts | 63° |
| 2026-04-23 09:35 | 40.91983 | 29.36620 | 3272 ft | 186 kts | 62° |
| 2026-04-23 09:36 | 40.92580 | 29.38221 | 3753 ft | 204 kts | 64° |
| 2026-04-23 09:36 | 40.92971 | 29.40088 | 4306 ft | 222 kts | 85° |
| 2026-04-23 09:36 | 40.92623 | 29.42137 | 4832 ft | 244 kts | 115° |
| 2026-04-23 09:36 | 40.91539 | 29.43927 | 5390 ft | 263 kts | 137° |
| 2026-04-23 09:37 | 40.89948 | 29.45243 | 6040 ft | 277 kts | 152° |
| 2026-04-23 09:37 | 40.88189 | 29.46310 | 6930 ft | 283 kts | 154° |
| 2026-04-23 09:37 | 40.86407 | 29.47357 | 7957 ft | 283 kts | 154° |
| 2026-04-23 09:37 | 40.84600 | 29.48452 | 8773 ft | 288 kts | 154° |
| 2026-04-23 09:38 | 40.82785 | 29.49585 | 9583 ft | 292 kts | 154° |
| 2026-04-23 09:38 | 40.81003 | 29.50829 | 10387 ft | 295 kts | 143° |
| 2026-04-23 09:38 | 40.79666 | 29.52888 | 11118 ft | 300 kts | 113° |
| 2026-04-23 09:38 | 40.79057 | 29.55482 | 11856 ft | 303 kts | 101° |
| 2026-04-23 09:39 | 40.78612 | 29.58225 | 12581 ft | 308 kts | 100° |
| 2026-04-23 09:39 | 40.78169 | 29.61020 | 13128 ft | 320 kts | 100° |
| 2026-04-23 09:39 | 40.77700 | 29.63958 | 13541 ft | 336 kts | 100° |
| 2026-04-23 09:39 | 40.77201 | 29.67061 | 13894 ft | 353 kts | 101° |
| 2026-04-23 09:40 | 40.76687 | 29.70249 | 14299 ft | 368 kts | 101° |
| 2026-04-23 09:40 | 40.76142 | 29.73617 | 14894 ft | 377 kts | 101° |
| 2026-04-23 09:40 | 40.75597 | 29.76985 | 15606 ft | 381 kts | 101° |
| 2026-04-23 09:40 | 40.75038 | 29.80434 | 16273 ft | 387 kts | 101° |
| 2026-04-23 09:41 | 40.74479 | 29.83872 | 16896 ft | 393 kts | 101° |
| 2026-04-23 09:41 | 40.73898 | 29.87452 | 17499 ft | 399 kts | 102° |
| 2026-04-23 09:41 | 40.73317 | 29.91032 | 18168 ft | 403 kts | 102° |
| 2026-04-23 09:41 | 40.72730 | 29.94641 | 18712 ft | 410 kts | 102° |
| 2026-04-23 09:42 | 40.72127 | 29.98335 | 19237 ft | 416 kts | 103° |
| 2026-04-23 09:42 | 40.71514 | 30.02088 | 19746 ft | 423 kts | 103° |
| 2026-04-23 09:42 | 40.70891 | 30.05890 | 20370 ft | 426 kts | 103° |
| 2026-04-23 09:42 | 40.70264 | 30.09703 | 20827 ft | 432 kts | 104° |
| 2026-04-23 09:43 | 40.69624 | 30.13594 | 21235 ft | 440 kts | 104° |
| 2026-04-23 09:43 | 40.68966 | 30.17576 | 21776 ft | 444 kts | 104° |
| 2026-04-23 09:43 | 40.68312 | 30.21529 | 22227 ft | 449 kts | 105° |
| 2026-04-23 09:43 | 40.67644 | 30.25560 | 22637 ft | 456 kts | 105° |
| 2026-04-23 09:44 | 40.66961 | 30.29667 | 23119 ft | 460 kts | 106° |
| 2026-04-23 09:44 | 40.66270 | 30.33812 | 23572 ft | 465 kts | 106° |
| 2026-04-23 09:44 | 40.65583 | 30.37929 | 24122 ft | 467 kts | 107° |
| 2026-04-23 09:44 | 40.64875 | 30.42165 | 24572 ft | 473 kts | 106° |
| 2026-04-23 09:45 | 40.64165 | 30.46396 | 24916 ft | 480 kts | 107° |
| 2026-04-23 09:45 | 40.63444 | 30.50683 | 25395 ft | 483 kts | 107° |
| 2026-04-23 09:45 | 40.62722 | 30.54979 | 25894 ft | 485 kts | 107° |
| 2026-04-23 09:45 | 40.61992 | 30.59314 | 26320 ft | 490 kts | 107° |
| 2026-04-23 09:46 | 40.61245 | 30.63723 | 26829 ft | 492 kts | 107° |
| 2026-04-23 09:46 | 40.60496 | 30.68139 | 27212 ft | 496 kts | 107° |
| 2026-04-23 09:46 | 40.59735 | 30.72623 | 27609 ft | 500 kts | 108° |
| 2026-04-23 09:46 | 40.58964 | 30.77155 | 27969 ft | 504 kts | 108° |
| 2026-04-23 09:47 | 40.58207 | 30.81612 | 28420 ft | 506 kts | 108° |
| 2026-04-23 09:47 | 40.57423 | 30.86200 | 28790 ft | 510 kts | 108° |
| 2026-04-23 09:47 | 40.56643 | 30.90752 | 29105 ft | 514 kts | 108° |
| 2026-04-23 09:47 | 40.55852 | 30.95352 | 29574 ft | 515 kts | 108° |
| 2026-04-23 09:48 | 40.55056 | 30.99970 | 29830 ft | 521 kts | 108° |
| 2026-04-23 09:48 | 40.54256 | 31.04600 | 30127 ft | 525 kts | 108° |
| 2026-04-23 09:48 | 40.53445 | 31.09301 | 30767 ft | 521 kts | 108° |
| 2026-04-23 09:48 | 40.52660 | 31.13849 | 31460 ft | 515 kts | 108° |
| 2026-04-23 09:49 | 40.51871 | 31.18406 | 31919 ft | 515 kts | 108° |
| 2026-04-23 09:49 | 40.51070 | 31.23002 | 32296 ft | 516 kts | 108° |
| 2026-04-23 09:49 | 40.50263 | 31.27611 | 32787 ft | 515 kts | 108° |
| 2026-04-23 09:49 | 40.49469 | 31.32136 | 33330 ft | 511 kts | 108° |
| 2026-04-23 09:50 | 40.48676 | 31.36643 | 33799 ft | 510 kts | 108° |
| 2026-04-23 09:50 | 40.47870 | 31.41193 | 34121 ft | 511 kts | 108° |
| 2026-04-23 09:50 | 40.47062 | 31.45742 | 34473 ft | 512 kts | 108° |
| 2026-04-23 09:50 | 40.46245 | 31.50292 | 34838 ft | 510 kts | 108° |
| 2026-04-23 09:51 | 40.45361 | 31.54788 | 34889 ft | 513 kts | 110° |
| 2026-04-23 09:51 | 40.43412 | 31.63673 | 34900 ft | 503 kts | 112° |
| 2026-04-23 09:52 | 40.41408 | 31.72440 | 34894 ft | 506 kts | 113° |
| 2026-04-23 09:52 | 40.39394 | 31.81278 | 34892 ft | 506 kts | 112° |
| 2026-04-23 09:53 | 40.37405 | 31.90112 | 34895 ft | 505 kts | 112° |
| 2026-04-23 09:53 | 40.35433 | 31.98927 | 34891 ft | 506 kts | 112° |
| 2026-04-23 09:54 | 40.33443 | 32.07773 | 34919 ft | 504 kts | 112° |
| 2026-04-23 09:54 | 40.31546 | 32.16596 | 34907 ft | 506 kts | 110° |
| 2026-04-23 09:55 | 40.29803 | 32.25502 | 34930 ft | 507 kts | 109° |
| 2026-04-23 09:55 | 40.28087 | 32.34445 | 34923 ft | 506 kts | 109° |
| 2026-04-23 09:56 | 40.26366 | 32.43306 | 34920 ft | 504 kts | 109° |
| 2026-04-23 09:56 | 40.24611 | 32.52181 | 34907 ft | 503 kts | 109° |
| 2026-04-23 09:57 | 40.22838 | 32.61022 | 34910 ft | 502 kts | 109° |
| 2026-04-23 09:57 | 40.21061 | 32.69833 | 34915 ft | 503 kts | 110° |
| 2026-04-23 09:58 | 40.19276 | 32.78631 | 34936 ft | 499 kts | 110° |
| 2026-04-23 09:58 | 40.17493 | 32.87376 | 34936 ft | 501 kts | 110° |
| 2026-04-23 09:59 | 40.15728 | 32.96217 | 34940 ft | 502 kts | 107° |
| 2026-04-23 09:59 | 40.14758 | 33.05248 | 34935 ft | 508 kts | 96° |
| 2026-04-23 10:00 | 40.14772 | 33.14525 | 34936 ft | 510 kts | 90° |
| 2026-04-23 10:00 | 40.15123 | 33.23724 | 34911 ft | 511 kts | 89° |
| 2026-04-23 10:01 | 40.15496 | 33.32995 | 34921 ft | 511 kts | 89° |
| 2026-04-23 10:01 | 40.15809 | 33.42254 | 34906 ft | 510 kts | 90° |
| 2026-04-23 10:02 | 40.16072 | 33.51497 | 34918 ft | 512 kts | 90° |
| 2026-04-23 10:02 | 40.16312 | 33.60779 | 34916 ft | 509 kts | 90° |
| 2026-04-23 10:03 | 40.16541 | 33.70072 | 34919 ft | 510 kts | 91° |
| 2026-04-23 10:03 | 40.16695 | 33.79350 | 34921 ft | 511 kts | 93° |
| 2026-04-23 10:04 | 40.16186 | 33.88530 | 34912 ft | 507 kts | 102° |
| 2026-04-23 10:04 | 40.15058 | 33.97623 | 34907 ft | 508 kts | 104° |
| 2026-04-23 10:05 | 40.13927 | 34.06714 | 34902 ft | 508 kts | 103° |
| 2026-04-23 10:05 | 40.12914 | 34.15821 | 34898 ft | 505 kts | 102° |
| 2026-04-23 10:06 | 40.11932 | 34.24907 | 34901 ft | 507 kts | 102° |
| 2026-04-23 10:06 | 40.10942 | 34.34017 | 34901 ft | 510 kts | 102° |
| 2026-04-23 10:07 | 40.09938 | 34.43154 | 34890 ft | 507 kts | 102° |
| 2026-04-23 10:07 | 40.08927 | 34.52228 | 34885 ft | 508 kts | 102° |
| 2026-04-23 10:08 | 40.07906 | 34.61275 | 34881 ft | 509 kts | 102° |
| 2026-04-23 10:08 | 40.06871 | 34.70394 | 34887 ft | 506 kts | 102° |
| 2026-04-23 10:09 | 40.05846 | 34.79395 | 34385 ft | 500 kts | 102° |
| 2026-04-23 10:09 | 40.05332 | 34.83882 | 33861 ft | 496 kts | 102° |
| 2026-04-23 10:09 | 40.04826 | 34.88283 | 33356 ft | 492 kts | 102° |
| 2026-04-23 10:09 | 40.04315 | 34.92695 | 32781 ft | 490 kts | 103° |
| 2026-04-23 10:10 | 40.03802 | 34.97090 | 32185 ft | 489 kts | 102° |
| 2026-04-23 10:10 | 40.03294 | 35.01443 | 31580 ft | 487 kts | 103° |
| 2026-04-23 10:10 | 40.02788 | 35.05757 | 30984 ft | 486 kts | 102° |
| 2026-04-23 10:10 | 40.02274 | 35.10138 | 30366 ft | 484 kts | 103° |
| 2026-04-23 10:11 | 40.01767 | 35.14451 | 29763 ft | 482 kts | 103° |
| 2026-04-23 10:11 | 40.01263 | 35.18728 | 29163 ft | 481 kts | 102° |
| 2026-04-23 10:11 | 40.00760 | 35.23002 | 28554 ft | 479 kts | 102° |
| 2026-04-23 10:11 | 40.00253 | 35.27277 | 27944 ft | 477 kts | 102° |
| 2026-04-23 10:12 | 39.99750 | 35.31538 | 27345 ft | 475 kts | 102° |
| 2026-04-23 10:12 | 39.99242 | 35.35817 | 26720 ft | 474 kts | 102° |
| 2026-04-23 10:12 | 39.98739 | 35.39980 | 26088 ft | 472 kts | 102° |
| 2026-04-23 10:12 | 39.98211 | 35.44237 | 25463 ft | 470 kts | 103° |
| 2026-04-23 10:13 | 39.97688 | 35.48383 | 24872 ft | 468 kts | 102° |
| 2026-04-23 10:13 | 39.97157 | 35.52554 | 24263 ft | 465 kts | 103° |
| 2026-04-23 10:13 | 39.96625 | 35.56704 | 23674 ft | 462 kts | 103° |
| 2026-04-23 10:13 | 39.96102 | 35.60785 | 23077 ft | 460 kts | 103° |
| 2026-04-23 10:14 | 39.95576 | 35.64893 | 22475 ft | 457 kts | 103° |
| 2026-04-23 10:14 | 39.95056 | 35.68955 | 21875 ft | 454 kts | 103° |
| 2026-04-23 10:14 | 39.94540 | 35.72992 | 21294 ft | 451 kts | 103° |
| 2026-04-23 10:14 | 39.94028 | 35.76994 | 20685 ft | 448 kts | 103° |
| 2026-04-23 10:15 | 39.93519 | 35.80963 | 20101 ft | 445 kts | 103° |
| 2026-04-23 10:15 | 39.93024 | 35.84882 | 19546 ft | 441 kts | 102° |
| 2026-04-23 10:15 | 39.92758 | 35.88870 | 19040 ft | 439 kts | 93° |
| 2026-04-23 10:15 | 39.93050 | 35.92822 | 18456 ft | 439 kts | 78° |
| 2026-04-23 10:16 | 39.94033 | 35.96561 | 17879 ft | 436 kts | 64° |
| 2026-04-23 10:16 | 39.95502 | 35.99934 | 17273 ft | 432 kts | 56° |
| 2026-04-23 10:16 | 39.97194 | 36.03197 | 16788 ft | 426 kts | 53° |
| 2026-04-23 10:16 | 39.98907 | 36.06293 | 16376 ft | 418 kts | 52° |
| 2026-04-23 10:17 | 40.00624 | 36.09316 | 15858 ft | 415 kts | 51° |
| 2026-04-23 10:17 | 40.02341 | 36.12326 | 15294 ft | 413 kts | 52° |
| 2026-04-23 10:17 | 40.04043 | 36.15319 | 14744 ft | 410 kts | 52° |
| 2026-04-23 10:17 | 40.05713 | 36.18280 | 14176 ft | 408 kts | 52° |
| 2026-04-23 10:18 | 40.07391 | 36.21281 | 13603 ft | 406 kts | 53° |
| 2026-04-23 10:18 | 40.09044 | 36.24252 | 13082 ft | 404 kts | 53° |
| 2026-04-23 10:18 | 40.10681 | 36.27209 | 12537 ft | 402 kts | 53° |
| 2026-04-23 10:18 | 40.12301 | 36.30145 | 11955 ft | 401 kts | 54° |
| 2026-04-23 10:19 | 40.13937 | 36.33114 | 11380 ft | 398 kts | 54° |
| 2026-04-23 10:19 | 40.15542 | 36.36030 | 10855 ft | 394 kts | 54° |
| 2026-04-23 10:19 | 40.17124 | 36.38903 | 10345 ft | 391 kts | 54° |
| 2026-04-23 10:19 | 40.18708 | 36.41781 | 9910 ft | 384 kts | 55° |
| 2026-04-23 10:20 | 40.20235 | 36.44554 | 9747 ft | 369 kts | 55° |
| 2026-04-23 10:20 | 40.21714 | 36.47240 | 9449 ft | 361 kts | 54° |
| 2026-04-23 10:20 | 40.23185 | 36.49916 | 9037 ft | 357 kts | 54° |
| 2026-04-23 10:20 | 40.24609 | 36.52508 | 8640 ft | 352 kts | 54° |
| 2026-04-23 10:21 | 40.26020 | 36.55082 | 8410 ft | 341 kts | 54° |
| 2026-04-23 10:21 | 40.27383 | 36.57568 | 8291 ft | 327 kts | 54° |
| 2026-04-23 10:21 | 40.28669 | 36.59916 | 8135 ft | 313 kts | 54° |
| 2026-04-23 10:21 | 40.29916 | 36.62194 | 8035 ft | 297 kts | 53° |
| 2026-04-23 10:22 | 40.31094 | 36.64337 | 7771 ft | 287 kts | 52° |
| 2026-04-23 10:22 | 40.32392 | 36.66273 | 7387 ft | 283 kts | 40° |
| 2026-04-23 10:22 | 40.34067 | 36.67498 | 6958 ft | 273 kts | 11° |
| 2026-04-23 10:22 | 40.35903 | 36.67480 | 6522 ft | 259 kts | 341° |
| 2026-04-23 10:23 | 40.37465 | 36.66485 | 6072 ft | 249 kts | 321° |
| 2026-04-23 10:23 | 40.38773 | 36.65081 | 5769 ft | 237 kts | 311° |
| 2026-04-23 10:23 | 40.39632 | 36.63335 | 5520 ft | 220 kts | 285° |
| 2026-04-23 10:23 | 40.39784 | 36.61427 | 5374 ft | 206 kts | 265° |
| 2026-04-23 10:24 | 40.39580 | 36.59601 | 5293 ft | 203 kts | 257° |
| 2026-04-23 10:24 | 40.39094 | 36.57848 | 5201 ft | 204 kts | 239° |
| 2026-04-23 10:24 | 40.38120 | 36.56521 | 5066 ft | 205 kts | 219° |
| 2026-04-23 10:24 | 40.36999 | 36.55416 | 4889 ft | 196 kts | 221° |
| 2026-04-23 10:25 | 40.35949 | 36.54268 | 4531 ft | 197 kts | 223° |
| 2026-04-23 10:25 | 40.34943 | 36.53055 | 4153 ft | 191 kts | 232° |
| 2026-04-23 10:25 | 40.34298 | 36.51648 | 3839 ft | 178 kts | 249° |
| 2026-04-23 10:25 | 40.33967 | 36.50116 | 3494 ft | 170 kts | 261° |
| 2026-04-23 10:26 | 40.33823 | 36.48592 | 3422 ft | 168 kts | 266° |
| 2026-04-23 10:26 | 40.33721 | 36.47055 | 3360 ft | 173 kts | 266° |
| 2026-04-23 10:26 | 40.33621 | 36.45484 | 2907 ft | 174 kts | 265° |
| 2026-04-23 10:26 | 40.33531 | 36.43937 | 2542 ft | 166 kts | 266° |
| 2026-04-23 10:27 | 40.33434 | 36.42496 | 2274 ft | 152 kts | 257° |
| 2026-04-23 10:27 | 40.33112 | 36.41245 | 2015 ft | 141 kts | 246° |
| 2026-04-23 10:27 | 40.32783 | 36.40069 | 1831 ft | 134 kts | 248° |
| 2026-04-23 10:27 | 40.32515 | 36.39104 | 1831 ft | 71 kts | 250° |
| 2026-04-23 10:28 | 40.32404 | 36.38701 | 1830 ft | 41 kts | 250° |
| 2026-04-23 10:28 | 40.32320 | 36.38409 | 1830 ft | 31 kts | 250° |
| 2026-04-23 10:28 | 40.32247 | 36.38159 | 1830 ft | 16 kts | 249° |
| 2026-04-23 10:28 | 40.32210 | 36.38031 | 1830 ft | 8 kts | 250° |
| 2026-04-23 10:29 | 40.32149 | 36.37981 | 1830 ft | 19 kts | 169° |
| 2026-04-23 10:29 | 40.32027 | 36.38036 | 1830 ft | 16 kts | 160° |
| 2026-04-23 10:29 | 40.31946 | 36.38097 | 1830 ft | 12 kts | 159° |
| 2026-04-23 10:29 | 40.31907 | 36.38116 | 1830 ft | 1 kts | 159° |
| 2026-04-23 10:30 | 40.31899 | 36.38120 | 1830 ft | 0 kts | 159° |